sensor_id;sensor_type;location;lat;lon;timestamp;temperature;humidity
10192;DHT22;17580;50.850;4.504;2023-01-08T00:01:03;10.60;99.90
10192;DHT22;17580;50.850;4.504;2023-01-08T00:03:30;10.70;99.90
10192;DHT22;17580;50.850;4.504;2023-01-08T00:06:00;10.70;99.90
10192;DHT22;17580;50.850;4.504;2023-01-08T00:08:27;10.70;99.90
10192;DHT22;17580;50.850;4.504;2023-01-08T00:10:54;10.80;99.90
10192;DHT22;17580;50.850;4.504;2023-01-08T00:13:21;10.80;99.90
10192;DHT22;17580;50.850;4.504;2023-01-08T00:15:50;10.70;99.90
10192;DHT22;17580;50.850;4.504;2023-01-08T00:18:17;10.70;99.90
10192;DHT22;17580;50.850;4.504;2023-01-08T00:20:44;10.70;99.90
10192;DHT22;17580;50.850;4.504;2023-01-08T00:23:12;10.70;99.90
10192;DHT22;17580;50.850;4.504;2023-01-08T00:25:39;10.70;99.90
10192;DHT22;17580;50.850;4.504;2023-01-08T00:28:06;10.70;99.90
10192;DHT22;17580;50.850;4.504;2023-01-08T00:30:34;10.70;99.90
10192;DHT22;17580;50.850;4.504;2023-01-08T00:33:03;10.70;99.90
10192;DHT22;17580;50.850;4.504;2023-01-08T00:35:29;10.80;99.90
10192;DHT22;17580;50.850;4.504;2023-01-08T00:37:56;10.80;99.90
10192;DHT22;17580;50.850;4.504;2023-01-08T00:40:23;10.70;99.90
10192;DHT22;17580;50.850;4.504;2023-01-08T00:42:50;10.30;99.90
10192;DHT22;17580;50.850;4.504;2023-01-08T00:45:17;10.20;99.90
10192;DHT22;17580;50.850;4.504;2023-01-08T00:47:44;9.90;99.90
10192;DHT22;17580;50.850;4.504;2023-01-08T00:50:13;9.80;99.90
10192;DHT22;17580;50.850;4.504;2023-01-08T00:52:40;9.50;99.90
10192;DHT22;17580;50.850;4.504;2023-01-08T00:55:07;9.30;99.90
10192;DHT22;17580;50.850;4.504;2023-01-08T00:57:35;9.10;99.90
10192;DHT22;17580;50.850;4.504;2023-01-08T01:00:03;9.20;99.90
10192;DHT22;17580;50.850;4.504;2023-01-08T01:02:30;9.20;99.90
10192;DHT22;17580;50.850;4.504;2023-01-08T01:04:57;9.10;99.90
10192;DHT22;17580;50.850;4.504;2023-01-08T01:07:26;9.10;99.90
10192;DHT22;17580;50.850;4.504;2023-01-08T01:09:53;9.10;99.90
10192;DHT22;17580;50.850;4.504;2023-01-08T01:12:20;9.10;99.90
10192;DHT22;17580;50.850;4.504;2023-01-08T01:14:47;9.00;99.90
10192;DHT22;17580;50.850;4.504;2023-01-08T01:17:14;9.00;99.90
10192;DHT22;17580;50.850;4.504;2023-01-08T01:19:41;8.90;99.90
10192;DHT22;17580;50.850;4.504;2023-01-08T01:22:08;8.90;99.90
10192;DHT22;17580;50.850;4.504;2023-01-08T01:24:37;8.90;99.90
10192;DHT22;17580;50.850;4.504;2023-01-08T01:27:04;8.90;99.90
10192;DHT22;17580;50.850;4.504;2023-01-08T01:29:31;8.90;99.90
10192;DHT22;17580;50.850;4.504;2023-01-08T01:31:58;8.90;99.90
10192;DHT22;17580;50.850;4.504;2023-01-08T01:34:25;9.00;99.90
10192;DHT22;17580;50.850;4.504;2023-01-08T01:36:52;8.90;99.90
10192;DHT22;17580;50.850;4.504;2023-01-08T01:39:19;8.80;99.90
10192;DHT22;17580;50.850;4.504;2023-01-08T01:41:47;8.90;99.90
10192;DHT22;17580;50.850;4.504;2023-01-08T01:44:35;9.00;99.90
10192;DHT22;17580;50.850;4.504;2023-01-08T01:47:08;8.90;99.90
10192;DHT22;17580;50.850;4.504;2023-01-08T01:49:37;9.00;99.90
10192;DHT22;17580;50.850;4.504;2023-01-08T01:52:06;9.00;99.90
10192;DHT22;17580;50.850;4.504;2023-01-08T01:54:35;8.90;99.90
10192;DHT22;17580;50.850;4.504;2023-01-08T01:57:04;8.90;99.90
10192;DHT22;17580;50.850;4.504;2023-01-08T01:59:32;8.90;99.90
10192;DHT22;17580;50.850;4.504;2023-01-08T02:01:59;8.80;99.90
10192;DHT22;17580;50.850;4.504;2023-01-08T02:04:26;8.90;99.90
10192;DHT22;17580;50.850;4.504;2023-01-08T02:06:59;8.80;99.90
10192;DHT22;17580;50.850;4.504;2023-01-08T02:09:35;8.70;99.90
10192;DHT22;17580;50.850;4.504;2023-01-08T02:12:10;8.80;99.90
10192;DHT22;17580;50.850;4.504;2023-01-08T02:14:48;8.70;99.90
10192;DHT22;17580;50.850;4.504;2023-01-08T02:17:23;8.70;99.90
10192;DHT22;17580;50.850;4.504;2023-01-08T02:19:54;8.70;99.90
10192;DHT22;17580;50.850;4.504;2023-01-08T02:22:34;8.70;99.90
10192;DHT22;17580;50.850;4.504;2023-01-08T02:25:10;8.70;99.90
10192;DHT22;17580;50.850;4.504;2023-01-08T02:27:42;8.80;99.90
10192;DHT22;17580;50.850;4.504;2023-01-08T02:30:11;8.80;99.90
10192;DHT22;17580;50.850;4.504;2023-01-08T02:32:39;8.80;99.90
10192;DHT22;17580;50.850;4.504;2023-01-08T02:35:08;8.90;99.90
10192;DHT22;17580;50.850;4.504;2023-01-08T02:37:36;9.00;99.90
10192;DHT22;17580;50.850;4.504;2023-01-08T02:40:10;9.00;99.90
10192;DHT22;17580;50.850;4.504;2023-01-08T02:42:45;9.00;99.90
10192;DHT22;17580;50.850;4.504;2023-01-08T02:45:23;9.10;99.90
10192;DHT22;17580;50.850;4.504;2023-01-08T02:47:54;9.00;99.90
10192;DHT22;17580;50.850;4.504;2023-01-08T02:50:30;9.00;99.90
10192;DHT22;17580;50.850;4.504;2023-01-08T02:53:03;9.00;99.90
10192;DHT22;17580;50.850;4.504;2023-01-08T02:55:33;9.00;99.90
10192;DHT22;17580;50.850;4.504;2023-01-08T02:58:02;9.00;99.90
10192;DHT22;17580;50.850;4.504;2023-01-08T03:00:30;9.00;99.90
10192;DHT22;17580;50.850;4.504;2023-01-08T03:03:05;9.00;99.90
10192;DHT22;17580;50.850;4.504;2023-01-08T03:05:33;8.90;99.90
10192;DHT22;17580;50.850;4.504;2023-01-08T03:08:01;8.90;99.90
10192;DHT22;17580;50.850;4.504;2023-01-08T03:10:29;8.90;99.90
10192;DHT22;17580;50.850;4.504;2023-01-08T03:12:59;8.80;99.90
10192;DHT22;17580;50.850;4.504;2023-01-08T03:15:33;8.90;99.90
10192;DHT22;17580;50.850;4.504;2023-01-08T03:18:06;8.80;99.90
10192;DHT22;17580;50.850;4.504;2023-01-08T03:20:35;8.70;99.90
10192;DHT22;17580;50.850;4.504;2023-01-08T03:23:06;8.70;99.90
10192;DHT22;17580;50.850;4.504;2023-01-08T03:25:37;8.60;99.90
10192;DHT22;17580;50.850;4.504;2023-01-08T03:28:09;8.60;99.90
10192;DHT22;17580;50.850;4.504;2023-01-08T03:30:39;8.60;99.90
10192;DHT22;17580;50.850;4.504;2023-01-08T03:33:09;8.60;99.90
10192;DHT22;17580;50.850;4.504;2023-01-08T03:35:39;8.50;99.90
10192;DHT22;17580;50.850;4.504;2023-01-08T03:38:11;8.50;99.90
10192;DHT22;17580;50.850;4.504;2023-01-08T03:40:43;8.40;99.90
10192;DHT22;17580;50.850;4.504;2023-01-08T03:43:10;8.40;99.90
10192;DHT22;17580;50.850;4.504;2023-01-08T03:45:45;8.40;99.90
10192;DHT22;17580;50.850;4.504;2023-01-08T03:48:13;8.30;99.90
10192;DHT22;17580;50.850;4.504;2023-01-08T03:50:40;8.40;99.90
10192;DHT22;17580;50.850;4.504;2023-01-08T03:53:07;8.40;99.90
10192;DHT22;17580;50.850;4.504;2023-01-08T03:55:34;8.40;99.90
10192;DHT22;17580;50.850;4.504;2023-01-08T03:58:02;8.40;99.90
10192;DHT22;17580;50.850;4.504;2023-01-08T04:00:29;8.30;99.90
10192;DHT22;17580;50.850;4.504;2023-01-08T04:02:57;8.40;99.90
10192;DHT22;17580;50.850;4.504;2023-01-08T04:05:24;8.40;99.90
10192;DHT22;17580;50.850;4.504;2023-01-08T04:07:54;8.30;99.90
10192;DHT22;17580;50.850;4.504;2023-01-08T04:10:21;8.30;99.90
10192;DHT22;17580;50.850;4.504;2023-01-08T04:12:48;8.30;99.90
10192;DHT22;17580;50.850;4.504;2023-01-08T04:15:15;8.30;99.90
10192;DHT22;17580;50.850;4.504;2023-01-08T04:17:42;8.30;99.90
10192;DHT22;17580;50.850;4.504;2023-01-08T04:20:11;8.30;99.90
10192;DHT22;17580;50.850;4.504;2023-01-08T04:22:38;8.30;99.90
10192;DHT22;17580;50.850;4.504;2023-01-08T04:25:05;8.30;99.90
10192;DHT22;17580;50.850;4.504;2023-01-08T04:27:32;8.30;99.90
10192;DHT22;17580;50.850;4.504;2023-01-08T04:29:59;8.30;99.90
10192;DHT22;17580;50.850;4.504;2023-01-08T04:32:26;8.30;99.90
10192;DHT22;17580;50.850;4.504;2023-01-08T04:34:53;8.30;99.90
10192;DHT22;17580;50.850;4.504;2023-01-08T04:37:22;8.20;99.90
10192;DHT22;17580;50.850;4.504;2023-01-08T04:39:49;8.20;99.90
10192;DHT22;17580;50.850;4.504;2023-01-08T04:42:16;8.10;99.90
10192;DHT22;17580;50.850;4.504;2023-01-08T04:44:43;8.10;99.90
10192;DHT22;17580;50.850;4.504;2023-01-08T04:47:10;8.10;99.90
10192;DHT22;17580;50.850;4.504;2023-01-08T04:49:37;8.00;99.90
10192;DHT22;17580;50.850;4.504;2023-01-08T04:52:04;7.90;99.90
10192;DHT22;17580;50.850;4.504;2023-01-08T04:54:32;7.90;99.90
10192;DHT22;17580;50.850;4.504;2023-01-08T04:56:59;7.80;99.90
10192;DHT22;17580;50.850;4.504;2023-01-08T04:59:26;7.80;99.90
10192;DHT22;17580;50.850;4.504;2023-01-08T05:01:53;7.80;99.90
10192;DHT22;17580;50.850;4.504;2023-01-08T05:04:21;7.80;99.90
10192;DHT22;17580;50.850;4.504;2023-01-08T05:06:48;7.70;99.90
10192;DHT22;17580;50.850;4.504;2023-01-08T05:09:15;7.80;99.90
10192;DHT22;17580;50.850;4.504;2023-01-08T05:11:43;7.70;99.90
10192;DHT22;17580;50.850;4.504;2023-01-08T05:14:10;7.60;99.90
10192;DHT22;17580;50.850;4.504;2023-01-08T05:16:37;7.60;99.90
10192;DHT22;17580;50.850;4.504;2023-01-08T05:19:04;7.60;99.90
10192;DHT22;17580;50.850;4.504;2023-01-08T05:21:31;7.50;99.90
10192;DHT22;17580;50.850;4.504;2023-01-08T05:23:58;7.60;99.90
10192;DHT22;17580;50.850;4.504;2023-01-08T05:26:25;7.50;99.90
10192;DHT22;17580;50.850;4.504;2023-01-08T05:28:54;7.50;99.90
10192;DHT22;17580;50.850;4.504;2023-01-08T05:31:21;7.50;99.90
10192;DHT22;17580;50.850;4.504;2023-01-08T05:33:48;7.50;99.90
10192;DHT22;17580;50.850;4.504;2023-01-08T05:36:16;7.40;99.90
10192;DHT22;17580;50.850;4.504;2023-01-08T05:38:43;7.50;99.90
10192;DHT22;17580;50.850;4.504;2023-01-08T05:41:10;7.40;99.90
10192;DHT22;17580;50.850;4.504;2023-01-08T05:43:37;7.40;99.90
10192;DHT22;17580;50.850;4.504;2023-01-08T05:46:06;7.40;99.90
10192;DHT22;17580;50.850;4.504;2023-01-08T05:48:34;7.30;99.90
10192;DHT22;17580;50.850;4.504;2023-01-08T05:51:02;7.20;99.90
10192;DHT22;17580;50.850;4.504;2023-01-08T05:53:30;7.20;99.90
10192;DHT22;17580;50.850;4.504;2023-01-08T05:55:59;7.20;99.90
10192;DHT22;17580;50.850;4.504;2023-01-08T05:58:26;7.20;99.90
10192;DHT22;17580;50.850;4.504;2023-01-08T06:00:53;7.20;99.90
10192;DHT22;17580;50.850;4.504;2023-01-08T06:03:22;7.20;99.90
10192;DHT22;17580;50.850;4.504;2023-01-08T06:05:49;7.20;99.90
10192;DHT22;17580;50.850;4.504;2023-01-08T06:08:16;7.20;99.90
10192;DHT22;17580;50.850;4.504;2023-01-08T06:10:43;7.20;99.90
10192;DHT22;17580;50.850;4.504;2023-01-08T06:13:10;7.10;99.90
10192;DHT22;17580;50.850;4.504;2023-01-08T06:15:37;7.10;99.90
10192;DHT22;17580;50.850;4.504;2023-01-08T06:18:05;7.10;99.90
10192;DHT22;17580;50.850;4.504;2023-01-08T06:20:33;7.10;99.90
10192;DHT22;17580;50.850;4.504;2023-01-08T06:23:00;7.20;99.90
10192;DHT22;17580;50.850;4.504;2023-01-08T06:25:27;7.10;99.90
10192;DHT22;17580;50.850;4.504;2023-01-08T06:27:55;7.10;99.90
10192;DHT22;17580;50.850;4.504;2023-01-08T06:30:22;7.10;99.90
10192;DHT22;17580;50.850;4.504;2023-01-08T06:32:49;7.10;99.90
10192;DHT22;17580;50.850;4.504;2023-01-08T06:35:16;7.10;99.90
10192;DHT22;17580;50.850;4.504;2023-01-08T06:37:44;7.10;99.90
10192;DHT22;17580;50.850;4.504;2023-01-08T06:40:13;7.10;99.90
10192;DHT22;17580;50.850;4.504;2023-01-08T06:42:39;7.10;99.90
10192;DHT22;17580;50.850;4.504;2023-01-08T06:45:08;7.10;99.90
10192;DHT22;17580;50.850;4.504;2023-01-08T06:47:35;7.10;99.90
10192;DHT22;17580;50.850;4.504;2023-01-08T06:50:02;7.10;99.90
10192;DHT22;17580;50.850;4.504;2023-01-08T06:52:30;7.10;99.90
10192;DHT22;17580;50.850;4.504;2023-01-08T06:54:59;7.10;99.90
10192;DHT22;17580;50.850;4.504;2023-01-08T06:57:26;7.20;99.90
10192;DHT22;17580;50.850;4.504;2023-01-08T06:59:53;7.20;99.90
10192;DHT22;17580;50.850;4.504;2023-01-08T07:02:20;7.30;99.90
10192;DHT22;17580;50.850;4.504;2023-01-08T07:04:47;7.30;99.90
10192;DHT22;17580;50.850;4.504;2023-01-08T07:07:14;7.40;99.90
10192;DHT22;17580;50.850;4.504;2023-01-08T07:09:41;7.40;99.90
10192;DHT22;17580;50.850;4.504;2023-01-08T07:12:12;7.40;99.90
10192;DHT22;17580;50.850;4.504;2023-01-08T07:14:39;7.40;99.90
10192;DHT22;17580;50.850;4.504;2023-01-08T07:17:06;7.40;99.90
10192;DHT22;17580;50.850;4.504;2023-01-08T07:19:33;7.50;99.90
10192;DHT22;17580;50.850;4.504;2023-01-08T07:22:00;7.50;99.90
10192;DHT22;17580;50.850;4.504;2023-01-08T07:24:27;7.50;99.90
10192;DHT22;17580;50.850;4.504;2023-01-08T07:26:55;7.50;99.90
10192;DHT22;17580;50.850;4.504;2023-01-08T07:29:23;7.50;99.90
10192;DHT22;17580;50.850;4.504;2023-01-08T07:31:50;7.50;99.90
10192;DHT22;17580;50.850;4.504;2023-01-08T07:34:17;7.50;99.90
10192;DHT22;17580;50.850;4.504;2023-01-08T07:36:44;7.50;99.90
10192;DHT22;17580;50.850;4.504;2023-01-08T07:39:11;7.50;99.90
10192;DHT22;17580;50.850;4.504;2023-01-08T07:41:38;7.50;99.90
10192;DHT22;17580;50.850;4.504;2023-01-08T07:44:05;7.60;99.90
10192;DHT22;17580;50.850;4.504;2023-01-08T07:46:33;7.60;99.90
10192;DHT22;17580;50.850;4.504;2023-01-08T07:49:00;7.60;99.90
10192;DHT22;17580;50.850;4.504;2023-01-08T07:51:27;7.60;99.90
10192;DHT22;17580;50.850;4.504;2023-01-08T07:53:55;7.60;99.90
10192;DHT22;17580;50.850;4.504;2023-01-08T07:56:23;7.70;99.90
10192;DHT22;17580;50.850;4.504;2023-01-08T07:58:50;7.60;99.90
10192;DHT22;17580;50.850;4.504;2023-01-08T08:01:17;7.60;99.90
10192;DHT22;17580;50.850;4.504;2023-01-08T08:03:46;7.70;99.90
10192;DHT22;17580;50.850;4.504;2023-01-08T08:06:12;7.60;99.90
10192;DHT22;17580;50.850;4.504;2023-01-08T08:08:39;7.70;99.90
10192;DHT22;17580;50.850;4.504;2023-01-08T08:11:06;7.70;99.90
10192;DHT22;17580;50.850;4.504;2023-01-08T08:13:34;7.70;99.90
10192;DHT22;17580;50.850;4.504;2023-01-08T08:16:01;7.70;99.90
10192;DHT22;17580;50.850;4.504;2023-01-08T08:18:28;7.80;99.90
10192;DHT22;17580;50.850;4.504;2023-01-08T08:20:57;7.90;99.90
10192;DHT22;17580;50.850;4.504;2023-01-08T08:23:24;7.90;99.90
10192;DHT22;17580;50.850;4.504;2023-01-08T08:25:51;8.00;99.90
10192;DHT22;17580;50.850;4.504;2023-01-08T08:28:18;8.00;99.90
10192;DHT22;17580;50.850;4.504;2023-01-08T08:30:45;8.00;99.90
10192;DHT22;17580;50.850;4.504;2023-01-08T08:33:12;8.00;99.90
10192;DHT22;17580;50.850;4.504;2023-01-08T08:35:39;8.00;99.90
10192;DHT22;17580;50.850;4.504;2023-01-08T08:38:08;8.10;99.90
10192;DHT22;17580;50.850;4.504;2023-01-08T08:40:35;8.10;99.90
10192;DHT22;17580;50.850;4.504;2023-01-08T08:43:02;8.10;99.90
10192;DHT22;17580;50.850;4.504;2023-01-08T08:45:30;8.10;99.90
10192;DHT22;17580;50.850;4.504;2023-01-08T08:47:57;8.20;99.90
10192;DHT22;17580;50.850;4.504;2023-01-08T08:50:24;8.20;99.90
10192;DHT22;17580;50.850;4.504;2023-01-08T08:52:51;8.20;99.90
10192;DHT22;17580;50.850;4.504;2023-01-08T08:55:19;8.30;99.90
10192;DHT22;17580;50.850;4.504;2023-01-08T08:57:47;8.30;99.90
10192;DHT22;17580;50.850;4.504;2023-01-08T09:00:15;8.30;99.90
10192;DHT22;17580;50.850;4.504;2023-01-08T09:02:42;8.30;99.90
10192;DHT22;17580;50.850;4.504;2023-01-08T09:05:09;8.40;99.90
10192;DHT22;17580;50.850;4.504;2023-01-08T09:07:36;8.40;99.90
10192;DHT22;17580;50.850;4.504;2023-01-08T09:10:04;8.40;99.90
10192;DHT22;17580;50.850;4.504;2023-01-08T09:12:33;8.40;99.90
10192;DHT22;17580;50.850;4.504;2023-01-08T09:15:00;8.40;99.90
10192;DHT22;17580;50.850;4.504;2023-01-08T09:17:27;8.30;99.90
10192;DHT22;17580;50.850;4.504;2023-01-08T09:19:54;8.40;99.90
10192;DHT22;17580;50.850;4.504;2023-01-08T09:22:21;8.40;99.90
10192;DHT22;17580;50.850;4.504;2023-01-08T09:24:48;8.40;99.90
10192;DHT22;17580;50.850;4.504;2023-01-08T09:27:15;8.50;99.90
10192;DHT22;17580;50.850;4.504;2023-01-08T09:29:43;8.60;99.90
10192;DHT22;17580;50.850;4.504;2023-01-08T09:32:11;8.90;99.90
10192;DHT22;17580;50.850;4.504;2023-01-08T09:34:38;9.00;99.90
10192;DHT22;17580;50.850;4.504;2023-01-08T09:37:05;9.00;99.90
10192;DHT22;17580;50.850;4.504;2023-01-08T09:39:32;10.20;99.90
10192;DHT22;17580;50.850;4.504;2023-01-08T09:42:02;11.50;95.40
10192;DHT22;17580;50.850;4.504;2023-01-08T09:44:34;12.10;89.40
10192;DHT22;17580;50.850;4.504;2023-01-08T09:47:03;11.80;88.40
10192;DHT22;17580;50.850;4.504;2023-01-08T09:49:38;11.90;88.50
10192;DHT22;17580;50.850;4.504;2023-01-08T09:52:07;12.10;87.20
10192;DHT22;17580;50.850;4.504;2023-01-08T09:54:35;12.10;88.50
10192;DHT22;17580;50.850;4.504;2023-01-08T09:57:02;12.20;83.60
10192;DHT22;17580;50.850;4.504;2023-01-08T09:59:30;12.10;86.20
10192;DHT22;17580;50.850;4.504;2023-01-08T10:01:57;11.90;85.60
10192;DHT22;17580;50.850;4.504;2023-01-08T10:04:27;12.30;87.10
10192;DHT22;17580;50.850;4.504;2023-01-08T10:06:59;13.20;80.40
10192;DHT22;17580;50.850;4.504;2023-01-08T10:09:28;12.80;81.20
10192;DHT22;17580;50.850;4.504;2023-01-08T10:11:59;12.50;80.50
10192;DHT22;17580;50.850;4.504;2023-01-08T10:14:29;11.90;83.40
10192;DHT22;17580;50.850;4.504;2023-01-08T10:16:59;11.90;84.70
10192;DHT22;17580;50.850;4.504;2023-01-08T10:19:28;11.70;81.80
10192;DHT22;17580;50.850;4.504;2023-01-08T10:21:55;11.50;84.40
10192;DHT22;17580;50.850;4.504;2023-01-08T10:24:33;11.30;86.10
10192;DHT22;17580;50.850;4.504;2023-01-08T10:27:05;11.30;85.20
10192;DHT22;17580;50.850;4.504;2023-01-08T10:29:33;11.70;86.20
10192;DHT22;17580;50.850;4.504;2023-01-08T10:32:07;11.40;84.10
10192;DHT22;17580;50.850;4.504;2023-01-08T10:34:43;11.00;86.70
10192;DHT22;17580;50.850;4.504;2023-01-08T10:37:25;10.80;86.50
10192;DHT22;17580;50.850;4.504;2023-01-08T10:39:54;11.20;86.10
10192;DHT22;17580;50.850;4.504;2023-01-08T10:42:22;11.20;86.90
10192;DHT22;17580;50.850;4.504;2023-01-08T10:44:58;11.30;86.70
10192;DHT22;17580;50.850;4.504;2023-01-08T10:47:28;10.70;87.80
10192;DHT22;17580;50.850;4.504;2023-01-08T10:49:58;10.80;89.00
10192;DHT22;17580;50.850;4.504;2023-01-08T10:52:28;10.70;88.30
10192;DHT22;17580;50.850;4.504;2023-01-08T10:54:56;10.60;89.60
10192;DHT22;17580;50.850;4.504;2023-01-08T10:57:25;10.60;90.40
10192;DHT22;17580;50.850;4.504;2023-01-08T10:59:53;10.50;89.50
10192;DHT22;17580;50.850;4.504;2023-01-08T11:02:29;10.30;90.80
10192;DHT22;17580;50.850;4.504;2023-01-08T11:05:00;10.30;90.30
10192;DHT22;17580;50.850;4.504;2023-01-08T11:07:29;10.50;90.20
10192;DHT22;17580;50.850;4.504;2023-01-08T11:09:57;11.20;89.60
10192;DHT22;17580;50.850;4.504;2023-01-08T11:12:32;11.30;86.10
10192;DHT22;17580;50.850;4.504;2023-01-08T11:15:00;11.10;87.50
10192;DHT22;17580;50.850;4.504;2023-01-08T11:17:28;10.80;87.80
10192;DHT22;17580;50.850;4.504;2023-01-08T11:20:06;11.40;82.30
10192;DHT22;17580;50.850;4.504;2023-01-08T11:22:33;11.50;82.40
10192;DHT22;17580;50.850;4.504;2023-01-08T11:25:00;11.20;83.50
10192;DHT22;17580;50.850;4.504;2023-01-08T11:27:30;11.00;84.70
10192;DHT22;17580;50.850;4.504;2023-01-08T11:30:04;11.30;83.00
10192;DHT22;17580;50.850;4.504;2023-01-08T11:32:50;11.50;82.90
10192;DHT22;17580;50.850;4.504;2023-01-08T11:35:24;10.90;82.20
10192;DHT22;17580;50.850;4.504;2023-01-08T11:37:54;10.70;84.60
10192;DHT22;17580;50.850;4.504;2023-01-08T11:40:30;10.50;84.00
10192;DHT22;17580;50.850;4.504;2023-01-08T11:43:12;10.40;84.90
10192;DHT22;17580;50.850;4.504;2023-01-08T11:45:52;10.40;85.80
10192;DHT22;17580;50.850;4.504;2023-01-08T11:48:34;10.40;86.30
10192;DHT22;17580;50.850;4.504;2023-01-08T11:51:38;10.40;86.10
10192;DHT22;17580;50.850;4.504;2023-01-08T11:54:14;10.60;84.50
10192;DHT22;17580;50.850;4.504;2023-01-08T11:56:58;11.20;83.30
10192;DHT22;17580;50.850;4.504;2023-01-08T11:59:35;10.80;83.00
10192;DHT22;17580;50.850;4.504;2023-01-08T12:02:17;10.80;83.10
10192;DHT22;17580;50.850;4.504;2023-01-08T12:05:06;11.80;81.60
10192;DHT22;17580;50.850;4.504;2023-01-08T12:07:47;11.70;78.50
10192;DHT22;17580;50.850;4.504;2023-01-08T12:10:22;11.30;79.80
10192;DHT22;17580;50.850;4.504;2023-01-08T12:12:56;11.20;80.90
10192;DHT22;17580;50.850;4.504;2023-01-08T12:15:34;11.10;81.50
10192;DHT22;17580;50.850;4.504;2023-01-08T12:18:23;11.00;82.80
10192;DHT22;17580;50.850;4.504;2023-01-08T12:21:01;11.00;81.40
10192;DHT22;17580;50.850;4.504;2023-01-08T12:23:47;11.00;83.80
10192;DHT22;17580;50.850;4.504;2023-01-08T12:26:20;10.90;83.20
10192;DHT22;17580;50.850;4.504;2023-01-08T12:32:01;10.70;83.10
10192;DHT22;17580;50.850;4.504;2023-01-08T12:34:41;10.50;82.60
10192;DHT22;17580;50.850;4.504;2023-01-08T12:37:14;10.50;84.20
10192;DHT22;17580;50.850;4.504;2023-01-08T12:39:48;10.40;85.20
10192;DHT22;17580;50.850;4.504;2023-01-08T12:42:19;10.30;84.90
10192;DHT22;17580;50.850;4.504;2023-01-08T12:44:51;10.40;87.50
10192;DHT22;17580;50.850;4.504;2023-01-08T12:47:22;10.50;86.60
10192;DHT22;17580;50.850;4.504;2023-01-08T12:49:57;10.50;85.30
10192;DHT22;17580;50.850;4.504;2023-01-08T12:52:31;10.60;84.20
10192;DHT22;17580;50.850;4.504;2023-01-08T12:55:08;10.40;84.00
10192;DHT22;17580;50.850;4.504;2023-01-08T12:57:45;10.50;83.80
10192;DHT22;17580;50.850;4.504;2023-01-08T13:00:19;10.60;83.60
10192;DHT22;17580;50.850;4.504;2023-01-08T13:02:53;10.60;84.00
10192;DHT22;17580;50.850;4.504;2023-01-08T13:05:31;10.70;84.90
10192;DHT22;17580;50.850;4.504;2023-01-08T13:08:00;10.80;83.60
10192;DHT22;17580;50.850;4.504;2023-01-08T13:10:34;10.90;83.80
10192;DHT22;17580;50.850;4.504;2023-01-08T13:13:03;10.80;83.30
10192;DHT22;17580;50.850;4.504;2023-01-08T13:15:31;10.70;83.50
10192;DHT22;17580;50.850;4.504;2023-01-08T13:18:06;10.70;84.00
10192;DHT22;17580;50.850;4.504;2023-01-08T13:20:34;10.70;84.20
10192;DHT22;17580;50.850;4.504;2023-01-08T13:23:03;10.90;84.60
10192;DHT22;17580;50.850;4.504;2023-01-08T13:25:34;11.40;82.90
10192;DHT22;17580;50.850;4.504;2023-01-08T13:28:22;11.70;79.20
10192;DHT22;17580;50.850;4.504;2023-01-08T13:30:52;11.40;79.20
10192;DHT22;17580;50.850;4.504;2023-01-08T13:33:36;11.70;78.90
10192;DHT22;17580;50.850;4.504;2023-01-08T13:36:22;12.40;77.60
10192;DHT22;17580;50.850;4.504;2023-01-08T13:39:02;12.90;75.90
10192;DHT22;17580;50.850;4.504;2023-01-08T13:41:32;12.90;73.60
10192;DHT22;17580;50.850;4.504;2023-01-08T13:44:01;12.40;72.70
10192;DHT22;17580;50.850;4.504;2023-01-08T13:46:31;12.20;74.00
10192;DHT22;17580;50.850;4.504;2023-01-08T13:49:00;11.90;74.20
10192;DHT22;17580;50.850;4.504;2023-01-08T13:51:39;11.80;75.20
10192;DHT22;17580;50.850;4.504;2023-01-08T13:54:24;11.50;75.30
10192;DHT22;17580;50.850;4.504;2023-01-08T13:57:02;11.40;77.40
10192;DHT22;17580;50.850;4.504;2023-01-08T13:59:40;11.60;78.20
10192;DHT22;17580;50.850;4.504;2023-01-08T14:02:23;11.90;75.80
10192;DHT22;17580;50.850;4.504;2023-01-08T14:04:52;12.10;73.50
10192;DHT22;17580;50.850;4.504;2023-01-08T14:07:19;11.60;75.40
10192;DHT22;17580;50.850;4.504;2023-01-08T14:09:48;11.20;76.60
10192;DHT22;17580;50.850;4.504;2023-01-08T14:12:18;11.00;77.30
10192;DHT22;17580;50.850;4.504;2023-01-08T14:14:48;10.80;80.00
10192;DHT22;17580;50.850;4.504;2023-01-08T14:17:17;10.70;80.90
10192;DHT22;17580;50.850;4.504;2023-01-08T14:19:45;10.70;80.60
10192;DHT22;17580;50.850;4.504;2023-01-08T14:22:18;11.00;79.60
10192;DHT22;17580;50.850;4.504;2023-01-08T14:24:53;11.10;78.70
10192;DHT22;17580;50.850;4.504;2023-01-08T14:27:24;10.90;78.00
10192;DHT22;17580;50.850;4.504;2023-01-08T14:29:52;10.90;78.10
10192;DHT22;17580;50.850;4.504;2023-01-08T14:32:21;10.70;80.00
10192;DHT22;17580;50.850;4.504;2023-01-08T14:34:51;10.60;79.10
10192;DHT22;17580;50.850;4.504;2023-01-08T14:37:19;10.60;77.90
10192;DHT22;17580;50.850;4.504;2023-01-08T14:39:46;10.50;78.60
10192;DHT22;17580;50.850;4.504;2023-01-08T14:42:18;10.70;78.80
10192;DHT22;17580;50.850;4.504;2023-01-08T14:45:07;10.70;78.70
10192;DHT22;17580;50.850;4.504;2023-01-08T14:47:43;10.50;79.50
10192;DHT22;17580;50.850;4.504;2023-01-08T14:50:18;10.50;79.00
10192;DHT22;17580;50.850;4.504;2023-01-08T14:52:46;10.50;80.20
10192;DHT22;17580;50.850;4.504;2023-01-08T14:55:14;10.40;80.50
10192;DHT22;17580;50.850;4.504;2023-01-08T14:57:44;10.30;80.90
10192;DHT22;17580;50.850;4.504;2023-01-08T15:00:17;10.20;80.90
10192;DHT22;17580;50.850;4.504;2023-01-08T15:02:46;10.10;80.70
10192;DHT22;17580;50.850;4.504;2023-01-08T15:05:17;10.00;80.60
10192;DHT22;17580;50.850;4.504;2023-01-08T15:07:55;10.00;82.70
10192;DHT22;17580;50.850;4.504;2023-01-08T15:10:40;9.90;83.40
10192;DHT22;17580;50.850;4.504;2023-01-08T15:13:21;10.00;81.40
10192;DHT22;17580;50.850;4.504;2023-01-08T15:15:54;10.00;82.60
10192;DHT22;17580;50.850;4.504;2023-01-08T15:18:22;10.10;82.30
10192;DHT22;17580;50.850;4.504;2023-01-08T15:20:49;10.10;81.90
10192;DHT22;17580;50.850;4.504;2023-01-08T15:23:34;10.10;81.80
10192;DHT22;17580;50.850;4.504;2023-01-08T15:26:03;10.10;83.50
10192;DHT22;17580;50.850;4.504;2023-01-08T15:28:30;10.10;83.00
10192;DHT22;17580;50.850;4.504;2023-01-08T15:30:58;10.10;82.80
10192;DHT22;17580;50.850;4.504;2023-01-08T15:33:25;10.10;82.30
10192;DHT22;17580;50.850;4.504;2023-01-08T15:35:53;10.10;81.60
10192;DHT22;17580;50.850;4.504;2023-01-08T15:38:20;10.10;82.40
10192;DHT22;17580;50.850;4.504;2023-01-08T15:40:49;10.10;81.30
10192;DHT22;17580;50.850;4.504;2023-01-08T15:43:18;10.10;81.60
10192;DHT22;17580;50.850;4.504;2023-01-08T15:45:45;10.10;81.60
10192;DHT22;17580;50.850;4.504;2023-01-08T15:48:14;10.10;81.80
10192;DHT22;17580;50.850;4.504;2023-01-08T15:50:43;10.10;81.90
10192;DHT22;17580;50.850;4.504;2023-01-08T15:53:15;10.00;83.10
10192;DHT22;17580;50.850;4.504;2023-01-08T15:55:42;10.00;82.70
10192;DHT22;17580;50.850;4.504;2023-01-08T15:58:10;10.00;83.40
10192;DHT22;17580;50.850;4.504;2023-01-08T16:00:38;10.00;82.70